createdAt,value
2018-07-22T00:01:23.292Z,16.07
2018-07-22T00:03:52.663Z,13.97
2018-07-22T00:06:22.294Z,13.47
2018-07-22T00:08:51.820Z,15.23
2018-07-22T00:11:21.151Z,14.73
2018-07-22T00:13:50.676Z,13.40
2018-07-22T00:16:20.220Z,13.83
2018-07-22T00:18:49.691Z,14.70
2018-07-22T00:21:19.008Z,14.70
2018-07-22T00:23:48.357Z,13.90
2018-07-22T00:26:17.962Z,16.83
2018-07-22T00:28:47.638Z,14.43
2018-07-22T00:31:17.004Z,14.57
2018-07-22T00:33:46.340Z,12.87
2018-07-22T00:36:15.646Z,18.37
2018-07-22T00:38:45.078Z,18.83
2018-07-22T00:41:14.700Z,14.53
2018-07-22T00:43:44.035Z,16.07
2018-07-22T00:46:13.401Z,17.90
2018-07-22T00:48:42.760Z,16.30
2018-07-22T00:51:12.079Z,15.40
2018-07-22T00:53:41.572Z,15.50
2018-07-22T00:56:11.066Z,17.63
2018-07-22T00:58:40.373Z,16.23
2018-07-22T01:01:09.740Z,17.07
2018-07-22T01:03:39.049Z,16.63
2018-07-22T01:06:08.447Z,17.43
2018-07-22T01:08:37.816Z,15.67
2018-07-22T01:11:07.388Z,18.73
2018-07-22T01:13:36.961Z,17.67
2018-07-22T01:16:06.387Z,17.53
2018-07-22T01:18:35.768Z,16.50
2018-07-22T01:21:05.338Z,17.93
2018-07-22T01:23:34.639Z,17.70
2018-07-22T01:26:04.136Z,15.83
2018-07-22T01:28:33.484Z,16.40
2018-07-22T01:31:02.800Z,17.10
2018-07-22T01:33:32.432Z,17.07
2018-07-22T01:36:01.905Z,15.43
2018-07-22T01:38:31.231Z,16.40
2018-07-22T01:41:01.008Z,14.37
2018-07-22T01:43:30.321Z,16.00
2018-07-22T01:45:59.697Z,17.70
2018-07-22T01:48:29.051Z,15.40
2018-07-22T01:50:58.345Z,15.57
2018-07-22T01:53:27.850Z,17.73
2018-07-22T01:55:57.299Z,15.70
2018-07-22T01:58:26.727Z,16.03
2018-07-22T02:00:56.028Z,16.60
2018-07-22T02:03:25.870Z,16.23
2018-07-22T02:05:55.163Z,17.33
2018-07-22T02:08:24.468Z,15.77
2018-07-22T02:10:53.837Z,15.80
2018-07-22T02:13:23.237Z,16.87
2018-07-22T02:15:52.628Z,18.63
2018-07-22T02:18:22.084Z,15.27
2018-07-22T02:20:51.406Z,15.80
2018-07-22T02:23:20.692Z,20.50
2018-07-22T02:25:50.073Z,16.60
2018-07-22T02:28:19.469Z,17.70
2018-07-22T02:30:48.865Z,15.33
2018-07-22T02:33:18.169Z,14.50
2018-07-22T02:35:47.615Z,15.90
2018-07-22T02:38:16.940Z,16.77
2018-07-22T02:40:46.741Z,20.47
2018-07-22T02:43:16.040Z,16.43
2018-07-22T02:45:45.334Z,15.27
2018-07-22T02:48:14.740Z,19.13
2018-07-22T02:50:44.061Z,15.97
2018-07-22T02:53:13.402Z,18.93
2018-07-22T02:55:42.713Z,16.23
2018-07-22T02:58:12.020Z,20.20
2018-07-22T03:00:41.485Z,18.50
2018-07-22T03:03:10.833Z,17.60
2018-07-22T03:05:40.263Z,17.63
2018-07-22T03:08:09.584Z,17.63
2018-07-22T03:10:39.527Z,16.63
2018-07-22T03:13:08.820Z,16.60
2018-07-22T03:15:38.189Z,18.63
2018-07-22T03:18:07.608Z,18.33
2018-07-22T03:20:37.060Z,17.13
2018-07-22T03:23:06.727Z,17.57
2018-07-22T03:25:36.017Z,17.30
2018-07-22T03:28:06.396Z,17.47
2018-07-22T03:30:35.880Z,17.70
2018-07-22T03:33:05.463Z,17.17
2018-07-22T03:35:34.861Z,18.73
2018-07-22T03:38:04.353Z,19.27
2018-07-22T03:40:33.738Z,17.17
2018-07-22T03:43:03.173Z,18.13
2018-07-22T03:45:32.636Z,20.90
2018-07-22T03:48:01.968Z,17.47
2018-07-22T03:50:31.312Z,17.87
2018-07-22T03:53:00.642Z,19.33
2018-07-22T03:55:29.983Z,18.53
2018-07-22T03:57:59.552Z,17.10
2018-07-22T04:00:28.880Z,19.70
2018-07-22T04:02:58.185Z,18.03
2018-07-22T04:05:27.503Z,19.30
2018-07-22T04:07:56.460Z,19.30
2018-07-22T04:10:25.645Z,19.93
2018-07-22T04:12:55.136Z,19.03
2018-07-22T04:15:24.457Z,18.93
2018-07-22T04:17:53.858Z,18.53
2018-07-22T04:20:23.150Z,17.70
2018-07-22T04:22:52.551Z,17.57
2018-07-22T04:25:21.836Z,19.67
2018-07-22T04:27:51.116Z,16.27
2018-07-22T04:30:20.908Z,16.60
2018-07-22T04:32:50.241Z,17.20
2018-07-22T04:35:19.536Z,21.37
2018-07-22T04:37:48.849Z,19.03
2018-07-22T04:40:18.143Z,19.50
2018-07-22T04:42:47.427Z,19.90
2018-07-22T04:45:16.859Z,20.47
2018-07-22T04:47:46.125Z,22.37
2018-07-22T04:50:15.451Z,17.53
2018-07-22T04:52:44.747Z,17.97
2018-07-22T04:55:14.246Z,17.50
2018-07-22T04:57:43.783Z,17.80
2018-07-22T05:00:13.215Z,18.40
2018-07-22T05:02:42.603Z,18.17
2018-07-22T05:05:12.067Z,17.93
2018-07-22T05:07:41.552Z,18.43
2018-07-22T05:10:10.893Z,18.43
2018-07-22T05:12:40.271Z,19.07
2018-07-22T05:15:09.703Z,19.40
2018-07-22T05:17:39.587Z,20.03
2018-07-22T05:20:09.054Z,20.83
2018-07-22T05:22:38.528Z,21.17
2018-07-22T05:25:08.040Z,20.00
2018-07-22T05:27:37.422Z,22.13
2018-07-22T05:30:06.728Z,21.00
2018-07-22T05:32:36.039Z,22.10
2018-07-22T05:35:05.362Z,20.33
2018-07-22T05:37:34.748Z,18.80
2018-07-22T05:40:04.234Z,20.43
2018-07-22T05:42:33.539Z,21.07
2018-07-22T05:45:02.920Z,21.60
2018-07-22T05:47:32.268Z,20.90
2018-07-22T05:50:01.593Z,19.87
2018-07-22T05:52:31.136Z,18.77
2018-07-22T05:55:00.500Z,20.30
2018-07-22T05:57:29.827Z,17.67
2018-07-22T05:59:59.458Z,25.50
2018-07-22T06:02:28.839Z,19.83
2018-07-22T06:04:58.911Z,21.20
2018-07-22T06:07:27.880Z,21.30
2018-07-22T06:09:57.046Z,18.80
2018-07-22T06:12:26.376Z,22.73
2018-07-22T06:14:55.817Z,19.53
2018-07-22T06:17:25.131Z,20.33
2018-07-22T06:19:54.463Z,18.00
2018-07-22T06:22:23.789Z,23.80
2018-07-22T06:24:53.256Z,19.37
2018-07-22T06:27:22.638Z,18.07
2018-07-22T06:29:52.000Z,18.43
2018-07-22T06:32:21.422Z,20.47
2018-07-22T06:34:50.868Z,20.20
2018-07-22T06:37:20.177Z,19.93
2018-07-22T06:39:49.595Z,20.57
2018-07-22T06:42:18.972Z,22.10
2018-07-22T06:44:48.363Z,20.40
2018-07-22T06:47:17.841Z,19.10
2018-07-22T06:49:47.124Z,19.03
2018-07-22T06:52:16.480Z,17.53
2018-07-22T06:54:45.855Z,18.50
2018-07-22T06:57:15.219Z,18.03
2018-07-22T06:59:44.559Z,17.50
2018-07-22T07:02:13.912Z,16.67
2018-07-22T07:04:43.382Z,18.17
2018-07-22T07:07:12.740Z,16.83
2018-07-22T07:09:42.082Z,17.30
2018-07-22T07:12:11.914Z,19.47
2018-07-22T07:14:41.373Z,18.30
2018-07-22T07:17:11.461Z,18.70
2018-07-22T07:19:40.949Z,15.60
2018-07-22T07:22:10.305Z,16.80
2018-07-22T07:24:39.584Z,17.20
2018-07-22T07:27:09.653Z,17.00
2018-07-22T07:29:39.417Z,17.00
2018-07-22T07:32:08.752Z,17.20
2018-07-22T07:34:37.763Z,17.30
2018-07-22T07:37:07.838Z,15.97
2018-07-22T07:39:37.259Z,16.83
2018-07-22T07:42:06.964Z,14.67
2018-07-22T07:44:36.472Z,17.00
2018-07-22T07:47:06.116Z,15.63
2018-07-22T07:49:35.492Z,14.53
2018-07-22T07:52:04.868Z,13.83
2018-07-22T07:54:34.335Z,13.50
2018-07-22T07:57:03.788Z,12.00
2018-07-22T07:59:33.673Z,14.97
2018-07-22T08:02:03.141Z,14.67
2018-07-22T08:04:33.141Z,17.20
2018-07-22T08:07:02.553Z,14.97
2018-07-22T08:09:31.998Z,16.60
2018-07-22T08:12:01.357Z,13.10
2018-07-22T08:14:30.747Z,13.70
2018-07-22T08:17:00.251Z,11.23
2018-07-22T08:19:29.567Z,13.33
2018-07-22T08:21:59.042Z,12.80
2018-07-22T08:24:28.333Z,12.20
2018-07-22T08:26:57.716Z,12.50
2018-07-22T08:29:31.909Z,12.60
2018-07-22T08:32:02.603Z,9.20
2018-07-22T08:34:32.173Z,12.73
2018-07-22T08:37:01.852Z,9.47
2018-07-22T08:39:32.195Z,9.47
2018-07-22T08:42:01.953Z,11.73
2018-07-22T08:44:31.301Z,9.70
2018-07-22T08:47:00.690Z,9.37
2018-07-22T08:49:30.028Z,9.67
2018-07-22T08:52:00.297Z,9.40
2018-07-22T08:54:29.624Z,8.90
2018-07-22T08:56:59.185Z,10.60
2018-07-22T08:59:28.691Z,14.47
2018-07-22T09:01:58.027Z,9.10
2018-07-22T09:04:27.459Z,8.67
2018-07-22T09:06:56.865Z,9.33
2018-07-22T09:09:26.194Z,8.73
2018-07-22T09:11:55.569Z,9.07
2018-07-22T09:14:25.093Z,10.10
2018-07-22T09:16:54.406Z,8.00
2018-07-22T09:19:23.767Z,8.77
2018-07-22T09:21:53.115Z,9.80
2018-07-22T09:24:22.413Z,7.90
2018-07-22T09:26:51.732Z,6.43
2018-07-22T09:29:21.063Z,7.30
2018-07-22T09:31:50.463Z,8.20
2018-07-22T09:34:19.787Z,6.57
2018-07-22T09:36:49.320Z,7.27
2018-07-22T09:39:18.657Z,8.90
2018-07-22T09:41:48.091Z,9.63
2018-07-22T09:44:17.366Z,11.33
2018-07-22T09:46:46.774Z,6.67
2018-07-22T09:49:16.168Z,8.30
2018-07-22T09:51:45.641Z,7.60
2018-07-22T09:54:14.989Z,7.47
2018-07-22T09:56:45.172Z,7.13
2018-07-22T09:59:14.610Z,7.17
2018-07-22T10:01:43.979Z,7.80
2018-07-22T10:04:13.328Z,7.37
2018-07-22T10:06:42.654Z,6.40
2018-07-22T10:09:12.478Z,7.17
2018-07-22T10:11:42.028Z,8.90
2018-07-22T10:14:11.302Z,6.73
2018-07-22T10:16:41.084Z,6.30
2018-07-22T10:19:10.998Z,6.20
2018-07-22T10:21:40.345Z,7.87
2018-07-22T10:24:09.698Z,6.63
2018-07-22T10:26:39.032Z,7.37
2018-07-22T10:29:08.332Z,8.47
2018-07-22T10:31:38.163Z,7.10
2018-07-22T10:34:08.092Z,7.43
2018-07-22T10:36:37.512Z,6.63
2018-07-22T10:39:09.865Z,6.50
2018-07-22T10:41:39.475Z,6.13
2018-07-22T10:44:09.104Z,7.10
2018-07-22T10:46:38.466Z,6.87
2018-07-22T10:49:07.799Z,5.50
2018-07-22T10:51:37.135Z,6.00
2018-07-22T10:54:06.600Z,6.67
2018-07-22T10:56:35.980Z,8.83
2018-07-22T10:59:05.411Z,4.93
2018-07-22T11:01:35.241Z,7.53
2018-07-22T11:04:04.746Z,6.10
2018-07-22T11:06:34.063Z,6.10
2018-07-22T11:09:03.809Z,5.60
2018-07-22T11:11:32.657Z,6.00
2018-07-22T11:14:01.995Z,7.37
2018-07-22T11:16:31.330Z,6.60
2018-07-22T11:19:00.636Z,5.50
2018-07-22T11:21:30.020Z,5.87
2018-07-22T11:23:59.465Z,7.03
2018-07-22T11:26:28.976Z,5.57
2018-07-22T11:28:58.521Z,6.63
2018-07-22T11:31:27.841Z,7.53
2018-07-22T11:33:57.978Z,8.23
2018-07-22T11:36:27.324Z,9.67
2018-07-22T11:38:56.662Z,6.70
2018-07-22T11:41:26.007Z,5.90
2018-07-22T11:43:55.535Z,6.13
2018-07-22T11:46:24.827Z,6.80
2018-07-22T11:48:54.459Z,5.40
2018-07-22T11:51:23.790Z,5.77
2018-07-22T11:53:53.188Z,5.80
2018-07-22T11:56:22.657Z,5.57
2018-07-22T11:58:52.031Z,5.67
2018-07-22T12:01:21.382Z,5.87
2018-07-22T12:03:50.681Z,6.10
2018-07-22T12:06:20.359Z,9.20
2018-07-22T12:08:49.702Z,5.10
2018-07-22T12:11:19.269Z,6.20
2018-07-22T12:13:48.229Z,8.90
2018-07-22T12:16:17.995Z,6.93
2018-07-22T12:18:47.300Z,8.27
2018-07-22T12:21:16.760Z,6.50
2018-07-22T12:23:46.044Z,6.93
2018-07-22T12:26:15.510Z,6.40
2018-07-22T12:28:44.876Z,7.40
2018-07-22T12:31:14.356Z,6.37
2018-07-22T12:33:43.744Z,7.17
2018-07-22T12:36:13.337Z,6.87
2018-07-22T12:38:42.735Z,6.97
2018-07-22T12:41:12.071Z,6.10
2018-07-22T12:43:41.498Z,6.60
2018-07-22T12:46:11.410Z,6.63
2018-07-22T12:48:42.581Z,6.00
2018-07-22T12:51:12.405Z,6.33
2018-07-22T12:53:42.448Z,5.57
2018-07-22T12:56:11.736Z,6.70
2018-07-22T12:58:41.094Z,6.80
2018-07-22T13:01:10.468Z,5.47
2018-07-22T13:03:39.792Z,6.00
2018-07-22T13:06:09.165Z,6.87
2018-07-22T13:08:38.478Z,6.83
2018-07-22T13:11:08.565Z,7.17
2018-07-22T13:13:37.830Z,7.60
2018-07-22T13:16:07.466Z,6.43
2018-07-22T13:18:37.397Z,7.30
2018-07-22T13:21:06.853Z,11.30
2018-07-22T13:23:36.497Z,7.40
2018-07-22T13:26:05.985Z,7.13
2018-07-22T13:28:35.541Z,5.23
2018-07-22T13:31:04.909Z,6.33
2018-07-22T13:33:34.208Z,6.57
2018-07-22T13:36:03.547Z,5.97
2018-07-22T13:38:33.088Z,5.47
2018-07-22T13:41:02.510Z,5.60
2018-07-22T13:43:31.850Z,11.10
2018-07-22T13:46:01.316Z,6.00
2018-07-22T13:48:30.646Z,5.80
2018-07-22T13:50:59.988Z,6.47
2018-07-22T13:53:29.940Z,6.20
2018-07-22T13:55:58.971Z,7.37
2018-07-22T13:58:28.236Z,6.47
2018-07-22T14:00:58.708Z,8.77
2018-07-22T14:03:28.129Z,7.50
2018-07-22T14:05:57.705Z,22.13
2018-07-22T14:08:27.193Z,13.37
2018-07-22T14:10:57.179Z,8.93
2018-07-22T14:13:26.590Z,13.07
2018-07-22T14:15:56.765Z,6.13
2018-07-22T14:18:26.300Z,6.10
2018-07-22T14:20:56.313Z,6.33
2018-07-22T14:23:25.829Z,6.07
2018-07-22T14:25:55.380Z,6.60
2018-07-22T14:28:24.372Z,7.23
2018-07-22T14:30:53.619Z,7.23
2018-07-22T14:33:22.938Z,6.00
2018-07-22T14:35:52.366Z,6.40
2018-07-22T14:38:21.784Z,6.07
2018-07-22T14:40:51.194Z,7.03
2018-07-22T14:43:20.481Z,6.90
2018-07-22T14:45:49.827Z,5.50
2018-07-22T14:48:19.900Z,6.67
2018-07-22T14:50:49.997Z,6.50
2018-07-22T14:55:48.810Z,11.23
2018-07-22T14:58:18.430Z,6.97
2018-07-22T15:00:47.876Z,6.40
2018-07-22T15:03:17.193Z,6.30
2018-07-22T15:05:46.583Z,7.13
2018-07-22T15:08:15.930Z,6.77
2018-07-22T15:10:45.565Z,6.20
2018-07-22T15:13:15.896Z,7.47
2018-07-22T15:15:46.086Z,6.27
2018-07-22T15:18:16.068Z,6.20
2018-07-22T15:20:45.403Z,7.70
2018-07-22T15:23:14.798Z,10.07
2018-07-22T15:25:43.880Z,6.33
2018-07-22T15:28:13.127Z,5.93
2018-07-22T15:30:42.500Z,6.17
2018-07-22T15:33:12.592Z,14.37
2018-07-22T15:35:42.303Z,6.83
2018-07-22T15:38:12.012Z,6.80
2018-07-22T15:40:41.368Z,7.73
2018-07-22T15:43:11.355Z,6.20
2018-07-22T15:45:40.804Z,6.37
2018-07-22T15:48:09.987Z,7.60
2018-07-22T15:50:39.665Z,6.80
2018-07-22T15:53:09.475Z,7.10
2018-07-22T15:55:39.383Z,6.27
2018-07-22T15:58:08.550Z,6.53
2018-07-22T16:00:38.076Z,8.13
2018-07-22T16:03:08.101Z,7.73
2018-07-22T16:05:37.600Z,9.00
2018-07-22T16:08:07.088Z,7.13
2018-07-22T16:10:36.645Z,7.43
2018-07-22T16:13:05.985Z,7.20
2018-07-22T16:15:35.445Z,6.07
2018-07-22T16:18:05.004Z,7.13
2018-07-22T16:20:34.430Z,7.20
2018-07-22T16:23:04.010Z,10.50
2018-07-22T16:25:33.313Z,6.90
2018-07-22T16:28:02.678Z,7.03
2018-07-22T16:30:32.036Z,7.27
2018-07-22T16:33:01.612Z,6.87
2018-07-22T16:35:30.660Z,7.37
2018-07-22T16:38:00.101Z,6.47
2018-07-22T16:40:29.652Z,6.77
2018-07-22T16:42:59.031Z,7.07
2018-07-22T16:45:28.471Z,6.33
2018-07-22T16:47:58.464Z,9.50
2018-07-22T16:50:28.094Z,6.90
2018-07-22T16:52:57.569Z,6.93
2018-07-22T16:55:26.936Z,7.00
2018-07-22T16:57:56.279Z,6.20
2018-07-22T17:00:25.695Z,7.23
2018-07-22T17:02:55.183Z,6.90
2018-07-22T17:05:24.565Z,6.83
2018-07-22T17:07:54.643Z,7.20
2018-07-22T17:10:24.913Z,7.10
2018-07-22T17:12:54.466Z,7.60
2018-07-22T17:15:24.675Z,16.30
2018-07-22T17:17:54.017Z,12.00
2018-07-22T17:20:23.412Z,5.93
2018-07-22T17:22:52.902Z,6.53
2018-07-22T17:25:22.242Z,13.10
2018-07-22T17:27:51.854Z,7.23
2018-07-22T17:30:21.264Z,7.80
2018-07-22T17:32:51.321Z,7.67
2018-07-22T17:35:20.825Z,6.90
2018-07-22T17:37:50.045Z,8.87
2018-07-22T17:40:22.155Z,7.87
2018-07-22T17:42:56.115Z,9.50
2018-07-22T17:45:28.726Z,14.97
2018-07-22T17:47:58.627Z,6.57
2018-07-22T17:50:28.002Z,7.20
2018-07-22T17:52:57.488Z,6.50
2018-07-22T17:55:27.928Z,8.90
2018-07-22T17:57:56.952Z,5.73
2018-07-22T18:00:26.257Z,7.17
2018-07-22T18:03:20.080Z,6.27
2018-07-22T18:05:50.002Z,5.97
2018-07-22T18:08:19.800Z,6.90
2018-07-22T18:10:49.747Z,6.50
2018-07-22T18:13:19.115Z,5.90
2018-07-22T18:15:50.837Z,7.00
2018-07-22T18:18:21.184Z,6.63
2018-07-22T18:20:50.794Z,5.30
2018-07-22T18:23:20.262Z,8.13
2018-07-22T18:25:49.702Z,6.53
2018-07-22T18:28:19.088Z,7.80
2018-07-22T18:30:48.673Z,6.53
2018-07-22T18:33:19.221Z,6.23
2018-07-22T18:35:48.780Z,7.83
2018-07-22T18:38:18.627Z,6.77
2018-07-22T18:40:48.340Z,5.90
2018-07-22T18:43:18.032Z,5.57
2018-07-22T18:45:47.772Z,7.20
2018-07-22T18:48:17.296Z,6.43
2018-07-22T18:50:47.106Z,6.50
2018-07-22T18:53:16.826Z,5.50
2018-07-22T18:55:47.440Z,6.43
2018-07-22T18:58:17.253Z,6.03
2018-07-22T19:00:47.583Z,6.37
2018-07-22T19:03:17.510Z,5.83
2018-07-22T19:05:47.421Z,6.13
2018-07-22T19:08:17.241Z,6.30
2018-07-22T19:10:46.953Z,5.80
2018-07-22T19:13:16.975Z,7.10
2018-07-22T19:15:46.787Z,7.13
2018-07-22T19:18:16.709Z,6.67
2018-07-22T19:20:46.624Z,7.80
2018-07-22T19:23:16.335Z,6.33
2018-07-22T19:25:46.252Z,5.70
2018-07-22T19:28:16.493Z,6.10
2018-07-22T19:30:45.886Z,6.50
2018-07-22T19:33:15.802Z,7.10
2018-07-22T19:35:45.625Z,7.10
2018-07-22T19:38:15.436Z,7.37
2018-07-22T19:40:45.252Z,7.73
2018-07-22T19:43:15.066Z,7.37
2018-07-22T19:45:45.700Z,7.33
2018-07-22T19:48:15.413Z,6.93
2018-07-22T19:50:45.233Z,7.00
2018-07-22T19:53:15.563Z,8.63
2018-07-22T19:55:45.375Z,7.30
2018-07-22T19:58:15.188Z,7.87
2018-07-22T20:00:45.019Z,7.13
2018-07-22T20:03:15.039Z,8.33
2018-07-22T20:05:44.737Z,8.83
2018-07-22T20:08:14.678Z,7.43
2018-07-22T20:10:44.451Z,7.30
2018-07-22T20:13:14.309Z,7.13
2018-07-22T20:15:44.130Z,7.27
2018-07-22T20:18:13.966Z,7.60
2018-07-22T20:20:43.943Z,7.00
2018-07-22T20:23:13.756Z,7.07
2018-07-22T20:25:43.408Z,8.13
2018-07-22T20:28:13.182Z,7.83
2018-07-22T20:30:42.699Z,7.40
2018-07-22T20:33:12.505Z,7.87
2018-07-22T20:35:41.956Z,8.23
2018-07-22T20:38:11.427Z,7.87
2018-07-22T20:40:41.414Z,7.23
2018-07-22T20:43:11.257Z,7.70
2018-07-22T20:45:40.682Z,7.27
2018-07-22T20:48:10.294Z,7.70
2018-07-22T20:50:40.765Z,7.60
2018-07-22T20:53:11.579Z,7.53
2018-07-22T20:55:40.951Z,7.73
2018-07-22T20:58:10.365Z,8.10
2018-07-22T21:00:40.305Z,7.60
2018-07-22T21:03:09.786Z,7.80
2018-07-22T21:05:38.886Z,7.80
2018-07-22T21:08:08.309Z,7.67
2018-07-22T21:10:38.005Z,7.37
2018-07-22T21:13:16.194Z,7.10
2018-07-22T21:15:45.721Z,7.27
2018-07-22T21:18:15.231Z,6.80
2018-07-22T21:20:45.071Z,7.67
2018-07-22T21:23:14.533Z,7.40
2018-07-22T21:25:43.582Z,6.47
2018-07-22T21:28:12.873Z,7.13
2018-07-22T21:30:42.365Z,6.93
2018-07-22T21:33:11.750Z,7.70
2018-07-22T21:35:41.132Z,7.43
2018-07-22T21:38:10.520Z,11.27
2018-07-22T21:40:40.057Z,6.50
2018-07-22T21:43:10.075Z,8.23
2018-07-22T21:45:39.461Z,6.90
2018-07-22T21:48:08.835Z,6.17
2018-07-22T21:50:38.278Z,5.17
2018-07-22T21:53:08.500Z,6.00
2018-07-22T21:55:37.883Z,6.00
2018-07-22T21:58:07.368Z,6.03
2018-07-22T22:00:42.131Z,5.27
2018-07-22T22:03:11.529Z,5.37
2018-07-22T22:05:41.624Z,5.23
2018-07-22T22:08:11.238Z,5.87
2018-07-22T22:10:41.154Z,5.47
2018-07-22T22:13:10.670Z,5.53
2018-07-22T22:15:40.017Z,5.10
2018-07-22T22:18:09.366Z,6.50
2018-07-22T22:20:38.740Z,5.87
2018-07-22T22:29:02.955Z,6.33
2018-07-22T22:31:32.288Z,6.43
2018-07-22T22:34:01.664Z,6.60
2018-07-22T22:36:31.088Z,6.63
2018-07-22T22:39:00.395Z,5.70
2018-07-22T22:41:29.901Z,7.10
2018-07-22T22:43:59.386Z,8.70
2018-07-22T22:46:28.746Z,8.20
2018-07-22T22:48:58.232Z,6.53
2018-07-22T22:51:27.672Z,7.60
2018-07-22T22:53:57.058Z,5.60
2018-07-22T22:56:26.400Z,6.30
2018-07-22T22:59:06.968Z,9.80
2018-07-22T23:01:36.739Z,5.80
2018-07-22T23:10:01.618Z,6.10
2018-07-22T23:12:31.148Z,6.90
2018-07-22T23:15:01.105Z,5.87
2018-07-22T23:17:30.483Z,9.10
2018-07-22T23:19:59.905Z,6.27
2018-07-22T23:22:29.368Z,8.20
2018-07-22T23:24:58.924Z,5.23
2018-07-22T23:27:28.857Z,5.07
2018-07-22T23:29:59.019Z,6.53
2018-07-22T23:32:28.357Z,8.40
2018-07-22T23:34:58.408Z,5.90
2018-07-22T23:37:28.137Z,7.37
2018-07-22T23:39:57.536Z,6.27
2018-07-22T23:42:26.918Z,5.90
2018-07-22T23:44:56.313Z,6.10
2018-07-22T23:47:26.135Z,6.43
2018-07-22T23:49:55.597Z,6.50
2018-07-22T23:52:26.468Z,5.53
2018-07-22T23:54:56.011Z,5.33
2018-07-22T23:57:25.336Z,5.60
2018-07-22T23:59:54.896Z,5.67
